Opelika, AL (36802)

7:22 AM CST on March 03, 2015 (GMT -0600)
Opelika | Change Station
CLOSE
Current Station
Personal Weather Station
Location: Opelika, AL
Elevation: 785 ft
Nearby Weather Stations
Active Advisory: Dense Fog Advisory

Elev 785 ft 32.66 °N, 85.34 °W | Updated 17 seconds ago

Overcast
Overcast
57.0 °F
Feels Like 57.0 °F
N
0.0
Wind Variable Wind from North
Gusts 0.0 mph

Today
High -- | Low -- °F
--% Chance of Precip.
Yesterday
High -- | Low -- °F
Precip. -- in
6:06 AM 5:40 PM
Waxing Gibbous, 96% visible
Pressure 30.23 in
Visibility 0.2 miles
Clouds Overcast 200 ft
Dew Point 56 °F
Humidity 97%
Rainfall 0.00 in
Snow Depth Not available.
UV 0 out of 12
Pollen 6.70 out of 12
Air Quality Not available.
Flu Activity Not available.
METAR KAUO 031315Z AUTO 13003KT M1/4SM OVC002 14/12 A3023 RMK AO1

More Conditions Fewer Conditions

Pressure 30.23 in
Visibility 0.2 miles
Clouds Overcast 200 ft
Dew Point 56 °F
Humidity 97%
Rainfall 0.00 in
Snow Depth Not available.
UV 0 out of 12
Pollen 6.70 out of 12
Air Quality Not available.
Flu Activity Not available.
METAR KAUO 031315Z AUTO 13003KT M1/4SM OVC002 14/12 A3023 RMK AO1

More Conditions Fewer Conditions

10-Day Weather Forecast

Almanac

Astronomy

Mar. 03, 2015 Rise Set
Actual Time
Civil Twilight
Nautical Twilight
Astronomical Twilight
Moon
Length of Visible Light
Length of Day
Tomorrow will be .
, % of the Moon is Illuminated

Today's Extremes

State Highs State Lows

Community

WunderPhotos

Upload Photos

1,802,100 photos uploaded!

WunderBlogs® & News

Nearby

Air Quality

  Air Quality AQ Index Pollutant
Not available.

Snow Depth

Station Depth Elevation

Earthquake Activity

City Distance Mag. Time & Date
Minimum magnitude displayed is 2.5.

Coastal Water Temperatures

Place Temperature

Nearby Weather Stations

Dense Fog Advisory
Statement as of 5:19 AM CST on March 03, 2015

... Dense fog advisory remains in effect until 9 am CST this
morning...

* visibilities... one-quarter of a mile or less at times.

* Impacts... hazradous driving conditions due to reduced
visibilities.

Precautionary/preparedness actions...

A dense fog advisory means visibilities will frequently be
reduced to one quarter mile or less. If driving... slow down... use
your headlights... and leave plenty of distance ahead of you.